Time;durP1;ratioP1;P1;durP2;ratioP2;P2;SDS_P1;SDS_P2;PMS_P1;PMS_P2;Temp;Humidity;BMP_temperature;BMP_pressure;BME280_temperature;BME280_humidity;BME280_pressure;Samples;Min_cycle;Max_cycle;Signal;HPM_P1;HPM_P2
2022/07/07 00:01:08;;;;;;;45.57;43.13;;;;;;;16.61;50.84;97298.75;5073722;28;20642;-66
2022/07/07 00:03:33;;;;;;;46.20;43.47;;;;;;;16.64;50.87;97290.31;5073385;28;20177;-66
2022/07/07 00:05:59;;;;;;;44.73;42.40;;;;;;;16.63;50.74;97291.34;5073892;28;20208;-66
2022/07/07 00:08:24;;;;;;;50.63;47.90;;;;;;;16.69;50.85;97290.34;5073790;28;20198;-65
2022/07/07 00:10:50;;;;;;;44.93;42.30;;;;;;;16.65;50.63;97296.41;5073670;28;20932;-65
2022/07/07 00:13:15;;;;;;;40.13;37.83;;;;;;;16.75;50.88;97297.28;5062691;28;20197;-65
2022/07/07 00:15:45;;;;;;;41.40;39.10;;;;;;;16.53;51.13;97294.69;5055454;28;20200;-65
2022/07/07 00:18:11;;;;;;;38.70;36.67;;;;;;;16.55;51.43;97294.44;5073767;28;20173;-65
2022/07/07 00:20:36;;;;;;;35.43;33.53;;;;;;;16.57;51.15;97289.69;5073326;28;20634;-65
2022/07/07 00:23:01;;;;;;;36.43;34.40;;;;;;;16.61;51.14;97291.59;5073869;28;20189;-65
2022/07/07 00:25:27;;;;;;;36.77;34.77;;;;;;;16.68;50.74;97288.75;5073305;28;20186;-65
2022/07/07 00:27:52;;;;;;;35.53;33.53;;;;;;;16.57;50.95;97290.47;5073524;28;20597;-66
2022/07/07 00:30:18;;;;;;;40.53;38.37;;;;;;;16.63;50.72;97294.81;5073278;28;20278;-65
2022/07/07 00:32:43;;;;;;;32.93;31.03;;;;;;;16.70;50.93;97299.09;5073060;28;20213;-65
2022/07/07 00:35:09;;;;;;;36.83;34.80;;;;;;;16.69;50.94;97294.84;5038665;28;20213;-66
2022/07/07 00:37:34;;;;;;;35.57;33.63;;;;;;;16.55;51.39;97292.56;5072994;28;20173;-65
2022/07/07 00:40:00;;;;;;;34.03;32.10;;;;;;;16.68;51.28;97286.09;5070843;28;20174;-66
2022/07/07 00:42:25;;;;;;;37.17;34.93;;;;;;;16.52;51.86;97284.34;5073165;28;20213;-65
2022/07/07 00:44:50;;;;;;;38.10;36.03;;;;;;;16.52;51.79;97289.63;5072938;28;20260;-66
2022/07/07 00:47:18;;;;;;;36.67;34.63;;;;;;;16.47;52.06;97284.31;5072945;28;20178;-65
2022/07/07 00:49:48;;;;;;;42.37;39.97;;;;;;;16.39;52.22;97282.09;5055003;28;20201;-66
2022/07/07 00:52:13;;;;;;;40.13;37.87;;;;;;;16.45;52.27;97284.56;5054229;28;20245;-65
2022/07/07 00:54:39;;;;;;;45.77;43.23;;;;;;;16.56;52.36;97282.78;5072820;28;20173;-65
2022/07/07 00:57:05;;;;;;;50.00;47.30;;;;;;;16.41;52.76;97280.81;5072566;28;20614;-66
2022/07/07 00:59:34;;;;;;;57.63;54.53;;;;;;;16.40;53.17;97279.22;5072227;28;20192;-66
2022/07/07 01:02:01;;;;;;;68.27;64.73;;;;;;;16.44;53.08;97279.53;5073116;28;20235;-65
2022/07/07 01:04:27;;;;;;;70.97;67.23;;;;;;;16.46;53.27;97267.63;5072836;28;20177;-65
2022/07/07 01:06:52;;;;;;;86.03;81.60;;;;;;;16.42;53.31;97269.19;5072754;28;20238;-65
2022/07/07 01:09:19;;;;;;;87.03;82.43;;;;;;;16.56;52.96;97273.00;5071999;28;20201;-65
2022/07/07 01:11:47;;;;;;;82.40;78.10;;;;;;;16.60;52.87;97263.56;5072710;28;20239;-66
2022/07/07 01:14:13;;;;;;;74.77;70.73;;;;;;;16.58;52.49;97265.63;5073383;28;20185;-65
2022/07/07 01:16:38;;;;;;;70.73;67.03;;;;;;;16.54;52.70;97264.53;5073260;28;20208;-65
2022/07/07 01:19:04;;;;;;;69.23;65.33;;;;;;;16.56;52.45;97256.31;5072686;28;20669;-65
2022/07/07 01:21:33;;;;;;;60.37;56.83;;;;;;;16.62;52.24;97258.78;5072312;28;20201;-65
2022/07/07 01:23:59;;;;;;;60.47;57.17;;;;;;;16.53;52.17;97259.47;5072153;28;20181;-66
2022/07/07 01:26:26;;;;;;;60.33;56.93;;;;;;;16.42;52.66;97265.75;5072171;28;20161;-66
2022/07/07 01:28:52;;;;;;;61.67;58.33;;;;;;;16.56;52.37;97254.47;5072011;28;20684;-65
2022/07/07 01:31:18;;;;;;;64.40;61.10;;;;;;;16.42;53.02;97255.16;5071972;28;20205;-65
2022/07/07 01:33:43;;;;;;;72.93;69.13;;;;;;;16.47;52.85;97250.72;5072272;28;20192;-65
2022/07/07 01:36:12;;;;;;;102.87;97.43;;;;;;;16.62;52.83;97250.84;5071857;28;20204;-65
2022/07/07 01:38:38;;;;;;;118.70;112.53;;;;;;;16.68;52.84;97240.28;5071938;28;20250;-65
2022/07/07 01:41:04;;;;;;;114.73;108.87;;;;;;;16.55;52.91;97234.34;5069374;28;20777;-65
2022/07/07 01:43:29;;;;;;;129.37;122.57;;;;;;;16.53;53.09;97236.47;5072263;28;20260;-66
2022/07/07 01:45:54;;;;;;;130.40;123.67;;;;;;;16.45;53.24;97228.19;5071843;28;20177;-66
2022/07/07 01:48:20;;;;;;;151.00;143.30;;;;;;;16.39;54.13;97234.47;5072006;28;20211;-66
2022/07/07 01:50:45;;;;;;;176.97;168.00;;;;;;;16.36;54.27;97230.50;5071476;28;20170;-66
2022/07/07 01:53:11;;;;;;;172.27;163.57;;;;;;;16.44;54.19;97240.63;5071648;28;20181;-66
2022/07/07 01:55:36;;;;;;;139.87;132.67;;;;;;;16.41;53.52;97227.91;5071759;28;20185;-66
2022/07/07 01:58:01;;;;;;;115.73;109.63;;;;;;;16.39;53.59;97229.19;5071443;28;20192;-65
2022/07/07 02:00:27;;;;;;;96.00;91.03;;;;;;;16.34;53.65;97229.16;5071139;28;20170;-65
2022/07/07 02:02:52;;;;;;;109.77;103.90;;;;;;;16.44;53.80;97224.75;5071662;28;20193;-65
2022/07/07 02:05:18;;;;;;;109.40;103.70;;;;;;;16.38;53.54;97231.06;5071574;28;20204;-65
2022/07/07 02:07:45;;;;;;;98.63;93.57;;;;;;;16.47;52.99;97231.38;5071704;28;20181;-66
2022/07/07 02:10:11;;;;;;;83.80;79.27;;;;;;;16.50;52.90;97234.31;5071299;28;20219;-65
2022/07/07 02:12:36;;;;;;;85.10;80.57;;;;;;;16.52;52.62;97220.84;5071131;28;20276;-65
2022/07/07 02:15:02;;;;;;;79.80;75.60;;;;;;;16.46;53.17;97227.94;5071675;28;20268;-65
2022/07/07 02:17:27;;;;;;;104.07;98.77;;;;;;;16.51;53.43;97225.31;5071431;28;20260;-65
2022/07/07 02:19:53;;;;;;;143.83;136.63;;;;;;;16.33;54.39;97219.63;5071485;28;20215;-65
2022/07/07 02:22:18;;;;;;;217.90;206.60;;;;;;;16.15;55.60;97224.25;5070842;28;20204;-65
2022/07/07 02:24:46;;;;;;;185.53;175.57;;;;;;;16.26;55.87;97229.63;5071461;28;20205;-65
2022/07/07 02:27:13;;;;;;;103.57;98.17;;;;;;;16.13;56.54;97230.81;5071434;28;20283;-65
2022/07/07 02:29:38;;;;;;;82.73;78.33;;;;;;;16.17;56.75;97230.06;5071325;28;20311;-65
2022/07/07 02:32:04;;;;;;;119.40;113.00;;;;;;;15.97;57.90;97239.66;5071389;28;20240;-65
2022/07/07 02:34:30;;;;;;;159.13;150.40;;;;;;;15.73;58.54;97224.09;5071454;28;20177;-65
2022/07/07 02:36:55;;;;;;;230.83;219.00;;;;;;;15.71;58.58;97230.69;5071506;28;20524;-65
2022/07/07 02:39:21;;;;;;;312.77;297.37;;;;;;;15.80;58.97;97232.63;5071489;28;20284;-65
2022/07/07 02:41:46;;;;;;;274.67;261.57;;;;;;;15.90;58.66;97231.94;5051155;28;20306;-65
2022/07/07 02:44:11;;;;;;;187.03;178.30;;;;;;;15.82;58.81;97229.75;5055741;28;20284;-64
2022/07/07 02:46:37;;;;;;;78.90;74.83;;;;;;;15.97;58.40;97226.44;5053778;28;20601;-64
2022/07/07 02:49:02;;;;;;;31.63;29.93;;;;;;;15.95;58.56;97225.88;5071588;28;20574;-65
2022/07/07 02:51:28;;;;;;;21.13;19.93;;;;;;;15.78;59.07;97221.50;5071272;28;20200;-65
2022/07/07 02:53:53;;;;;;;24.33;22.87;;;;;;;15.63;59.49;97231.91;5071509;28;20208;-65
2022/07/07 02:56:19;;;;;;;27.80;26.30;;;;;;;15.74;59.24;97227.53;5071692;28;20652;-65
2022/07/07 02:58:44;;;;;;;32.67;30.93;;;;;;;15.66;59.62;97226.13;5052537;28;20177;-65
2022/07/07 03:01:10;;;;;;;34.67;32.67;;;;;;;15.89;58.78;97222.38;5071348;28;20629;-65
2022/07/07 03:03:36;;;;;;;39.60;37.43;;;;;;;15.59;59.73;97222.09;5070976;28;20614;-66
2022/07/07 03:06:03;;;;;;;46.50;43.93;;;;;;;15.76;59.25;97217.50;5071342;28;20174;-65
2022/07/07 03:08:28;;;;;;;54.60;51.60;;;;;;;15.53;59.99;97225.72;5071142;28;20224;-66
2022/07/07 03:10:54;;;;;;;66.80;63.17;;;;;;;15.78;58.96;97224.13;5070965;28;20209;-65
2022/07/07 03:13:19;;;;;;;72.10;68.10;;;;;;;15.73;58.93;97221.44;5070393;28;20181;-65
2022/07/07 03:15:44;;;;;;;93.17;88.27;;;;;;;15.74;58.99;97211.66;5071775;28;20601;-65
2022/07/07 03:18:10;;;;;;;127.03;120.27;;;;;;;15.63;59.52;97209.97;5071450;28;20181;-65
2022/07/07 03:20:35;;;;;;;153.33;145.27;;;;;;;15.59;59.67;97214.16;5070970;28;20174;-65
2022/07/07 03:23:01;;;;;;;147.83;139.90;;;;;;;15.74;59.18;97209.03;5070975;28;20638;-65
2022/07/07 03:25:26;;;;;;;139.70;131.87;;;;;;;15.47;60.12;97208.97;5071088;28;20203;-65
2022/07/07 03:27:53;;;;;;;138.73;131.43;;;;;;;15.59;59.89;97206.22;5070839;28;20199;-65
2022/07/07 03:30:19;;;;;;;114.33;108.20;;;;;;;15.61;59.88;97199.63;5070954;28;20216;-65
2022/07/07 03:32:44;;;;;;;74.27;70.33;;;;;;;15.46;60.77;97201.28;5054143;28;20262;-65
2022/07/07 03:35:09;;;;;;;69.40;65.70;;;;;;;15.56;60.50;97202.22;5074319;28;20264;-65
2022/07/07 03:37:37;;;;;;;53.60;50.77;;;;;;;15.62;60.35;97195.94;5074474;28;20188;-65
2022/07/07 03:40:04;;;;;;;47.57;44.80;;;;;;;15.57;60.59;97197.75;5053812;28;20189;-66
2022/07/07 03:42:30;;;;;;;37.53;35.37;;;;;;;15.53;60.68;97189.53;5074391;28;20712;-65
2022/07/07 03:44:56;;;;;;;40.73;38.47;;;;;;;15.50;60.88;97187.31;5074356;28;20232;-65
2022/07/07 03:47:22;;;;;;;34.67;32.60;;;;;;;15.59;60.71;97185.09;5074457;28;20216;-65
2022/07/07 03:49:47;;;;;;;34.27;32.40;;;;;;;15.66;60.27;97178.53;5074127;28;20672;-64
2022/07/07 03:52:13;;;;;;;30.80;29.07;;;;;;;15.76;59.96;97170.75;5073630;28;20255;-65
2022/07/07 03:54:38;;;;;;;28.50;27.03;;;;;;;15.78;60.21;97173.13;5074106;28;20176;-65
2022/07/07 03:57:04;;;;;;;31.23;29.60;;;;;;;15.52;60.88;97173.91;5073810;28;20189;-66
2022/07/07 03:59:29;;;;;;;27.87;26.13;;;;;;;15.63;60.58;97175.59;5073894;28;20256;-65
2022/07/07 04:01:55;;;;;;;24.17;22.80;;;;;;;15.71;60.63;97177.81;5073665;28;20616;-65
2022/07/07 04:04:20;;;;;;;26.90;25.20;;;;;;;15.77;60.31;97171.53;5073823;28;20269;-65
2022/07/07 04:06:45;;;;;;;24.13;22.70;;;;;;;15.83;60.26;97173.16;5074485;28;20173;-65
2022/07/07 04:09:11;;;;;;;26.03;24.63;;;;;;;15.70;60.50;97173.56;5073938;28;20240;-65
2022/07/07 04:11:36;;;;;;;22.90;21.50;;;;;;;15.89;59.98;97174.00;5073136;28;20552;-65
2022/07/07 04:14:03;;;;;;;22.07;20.57;;;;;;;15.68;60.56;97173.81;5073917;28;20193;-65
2022/07/07 04:16:29;;;;;;;21.93;20.70;;;;;;;15.71;60.70;97177.81;5055464;28;20212;-65
2022/07/07 04:18:57;;;;;;;19.30;18.20;;;;;;;15.89;60.31;97176.66;5055784;28;20178;-65
2022/07/07 04:21:23;;;;;;;20.10;18.90;;;;;;;15.93;60.16;97181.22;5073610;28;20664;-65
2022/07/07 04:23:48;;;;;;;24.90;23.40;;;;;;;15.97;59.92;97182.28;5073736;28;20181;-65
2022/07/07 04:26:14;;;;;;;26.23;24.90;;;;;;;16.23;58.96;97176.16;5073506;28;20207;-65
2022/07/07 04:28:40;;;;;;;34.83;32.73;;;;;;;16.16;58.97;97188.78;5073328;28;20213;-65
2022/07/07 04:31:06;;;;;;;34.20;32.43;;;;;;;16.18;58.71;97172.69;5073541;28;20550;-65
2022/07/07 04:33:31;;;;;;;38.37;36.13;;;;;;;16.02;59.23;97174.41;5073607;28;20177;-65
2022/07/07 04:35:57;;;;;;;44.23;41.90;;;;;;;16.15;58.92;97178.50;5073186;28;20178;-65
2022/07/07 04:38:22;;;;;;;44.97;42.23;;;;;;;16.22;58.60;97176.41;5073540;28;20177;-65
2022/07/07 04:40:49;;;;;;;41.60;39.37;;;;;;;16.32;58.46;97178.34;5070897;28;20308;-65
2022/07/07 04:43:14;;;;;;;41.57;39.33;;;;;;;16.24;58.69;97176.97;5072520;28;20189;-65
2022/07/07 04:45:39;;;;;;;45.83;43.17;;;;;;;16.43;58.43;97166.81;5072670;28;20184;-65
2022/07/07 04:48:05;;;;;;;46.17;43.50;;;;;;;16.49;58.47;97163.13;5072847;28;20231;-65
2022/07/07 04:50:31;;;;;;;47.73;45.23;;;;;;;16.54;58.15;97168.47;5072506;28;20189;-65
2022/07/07 04:52:56;;;;;;;45.13;42.63;;;;;;;16.49;58.48;97169.22;5072687;28;20210;-65
2022/07/07 04:55:22;;;;;;;39.20;36.87;;;;;;;16.41;58.11;97177.63;5073183;28;20188;-64
2022/07/07 04:57:47;;;;;;;43.50;41.03;;;;;;;16.43;58.42;97174.72;5072912;28;20173;-64
2022/07/07 05:00:13;;;;;;;41.33;39.10;;;;;;;16.43;58.50;97174.72;5072491;28;20165;-65
2022/07/07 05:02:38;;;;;;;44.60;42.17;;;;;;;16.18;59.19;97173.47;5072884;28;20696;-65
2022/07/07 05:05:06;;;;;;;45.07;42.67;;;;;;;16.41;58.72;97160.94;5072870;28;20178;-65
2022/07/07 05:07:32;;;;;;;43.17;40.83;;;;;;;16.95;57.44;97157.06;5073224;28;20173;-66
2022/07/07 05:09:57;;;;;;;32.13;30.27;;;;;;;17.33;56.16;97163.84;5054677;28;20196;-65
2022/07/07 05:12:23;;;;;;;33.80;31.93;;;;;;;17.31;55.89;97165.97;5064543;28;20205;-65
2022/07/07 05:14:48;;;;;;;35.70;33.80;;;;;;;17.12;56.75;97158.72;5072556;28;20204;-65
2022/07/07 05:17:14;;;;;;;37.37;35.43;;;;;;;17.56;55.88;97164.44;5072981;28;20227;-65
2022/07/07 05:19:40;;;;;;;32.07;30.37;;;;;;;17.74;55.62;97164.00;5072465;28;20205;-65
2022/07/07 05:22:05;;;;;;;51.50;48.73;;;;;;;18.25;54.06;97164.84;5072074;28;20209;-65
2022/07/07 05:24:31;;;;;;;52.10;49.27;;;;;;;18.63;52.59;97155.53;5072181;28;20172;-66
2022/07/07 05:26:56;;;;;;;37.67;35.50;;;;;;;18.58;52.56;97164.31;5072141;28;20314;-66
2022/07/07 05:29:22;;;;;;;36.77;34.87;;;;;;;18.12;53.40;97170.66;5072228;28;20662;-66
2022/07/07 05:31:47;;;;;;;43.20;40.90;;;;;;;18.15;53.73;97172.78;5072108;28;20208;-66
2022/07/07 05:34:12;;;;;;;59.33;56.17;;;;;;;17.65;54.87;97171.66;5072008;28;20553;-66
2022/07/07 05:36:37;;;;;;;37.73;35.53;;;;;;;17.59;55.21;97172.69;5072116;28;20591;-65
2022/07/07 05:39:03;;;;;;;30.53;28.80;;;;;;;17.59;55.15;97170.03;5071698;28;20182;-66
2022/07/07 05:44:14;;;;;;;48.73;46.17;;;;;;;17.62;55.21;97166.88;5069879;28;20594;-66
2022/07/07 05:46:39;;;;;;;46.47;44.00;;;;;;;17.49;55.64;97156.75;5072048;28;20638;-66
2022/07/07 05:49:05;;;;;;;45.80;42.87;;;;;;;17.63;55.30;97163.16;5071734;28;20731;-65
2022/07/07 05:51:30;;;;;;;44.67;42.33;;;;;;;18.24;53.83;97157.94;5072002;28;20201;-63
2022/07/07 05:53:55;;;;;;;34.83;32.97;;;;;;;18.75;52.44;97150.72;5071044;28;20193;-65
2022/07/07 05:56:21;;;;;;;36.37;34.37;;;;;;;19.19;51.48;97142.06;5071578;28;20166;-65
2022/07/07 05:58:47;;;;;;;50.83;47.97;;;;;;;19.55;50.48;97148.84;5053536;28;20161;-65
2022/07/07 06:01:13;;;;;;;131.82;125.40;;;;;;;19.68;49.85;97148.22;5071770;28;20337;-65
2022/07/07 06:03:38;;;;;;;100.72;95.85;;;;;;;20.08;48.87;97147.16;5072062;28;20166;-65
2022/07/07 06:06:04;;;;;;;204.52;194.68;;;;;;;20.47;47.67;97149.78;5071622;28;20227;-65
2022/07/07 06:08:30;;;;;;;100.00;95.13;;;;;;;20.12;48.02;97156.16;5071661;28;20231;-65
2022/07/07 06:10:55;;;;;;;111.63;106.28;;;;;;;20.62;47.22;97165.59;5070790;28;20201;-65
2022/07/07 06:13:21;;;;;;;143.75;136.77;;;;;;;21.24;46.08;97161.22;5071914;28;20189;-65
2022/07/07 06:15:47;;;;;;;220.20;209.57;;;;;;;20.96;46.53;97156.72;5071752;28;20222;-66
2022/07/07 06:18:13;;;;;;;301.15;286.30;;;;;;;20.74;47.06;97157.22;5053355;28;20638;-66
2022/07/07 06:20:38;;;;;;;307.23;291.85;;;;;;;20.75;47.05;97158.84;5071498;28;20181;-64
2022/07/07 06:23:04;;;;;;;267.70;254.55;;;;;;;21.50;45.38;97167.84;5070934;28;20174;-66
2022/07/07 06:25:30;;;;;;;171.50;163.38;;;;;;;21.56;45.34;97164.03;5071332;28;20223;-67
2022/07/07 06:27:55;;;;;;;171.05;162.75;;;;;;;21.42;45.84;97159.69;5070872;28;20173;-66
2022/07/07 06:30:21;;;;;;;158.57;151.00;;;;;;;21.64;45.72;97165.25;5071199;28;20658;-66
2022/07/07 06:32:47;;;;;;;208.45;198.38;;;;;;;21.55;46.01;97153.66;5071221;28;20220;-66
2022/07/07 06:35:12;;;;;;;211.27;201.20;;;;;;;21.53;45.72;97151.25;5071398;28;20602;-66
2022/07/07 06:37:38;;;;;;;119.15;112.85;;;;;;;21.88;45.32;97144.63;5071418;28;20652;-65
2022/07/07 06:40:04;;;;;;;128.98;122.95;;;;;;;21.93;45.53;97144.56;5071332;28;20275;-66
2022/07/07 06:42:29;;;;;;;247.10;235.27;;;;;;;22.42;44.02;97143.25;5068764;28;20566;-62
2022/07/07 06:44:54;;;;;;;377.55;359.48;;;;;;;23.03;42.64;97142.97;5070916;28;20208;-65
2022/07/07 06:47:20;;;;;;;259.27;247.15;;;;;;;23.15;42.54;97143.25;5056351;28;20201;-65
2022/07/07 06:49:45;;;;;;;175.57;167.07;;;;;;;23.37;42.27;97139.88;5091209;28;20196;-65
2022/07/07 06:52:12;;;;;;;126.60;120.43;;;;;;;23.83;42.20;97138.91;5089151;28;20204;-64
2022/07/07 06:54:38;;;;;;;73.80;69.95;;;;;;;23.97;41.91;97137.75;5091748;28;20566;-64
2022/07/07 06:57:08;;;;;;;53.03;50.38;;;;;;;23.51;42.03;97139.88;5073351;28;20183;-65
2022/07/07 06:59:34;;;;;;;79.70;75.38;;;;;;;22.95;43.13;97135.66;5076248;28;20173;-65
2022/07/07 07:02:00;;;;;;;192.32;183.07;;;;;;;22.73;43.40;97140.88;5069275;28;20197;-65
2022/07/07 07:04:26;;;;;;;277.80;264.88;;;;;;;22.70;43.38;97149.44;5070097;28;20227;-65
2022/07/07 07:06:51;;;;;;;329.27;314.00;;;;;;;22.47;44.06;97151.19;5071315;28;20564;-65
2022/07/07 07:09:17;;;;;;;356.25;339.92;;;;;;;22.85;43.28;97143.84;5074185;28;20209;-65
2022/07/07 07:11:42;;;;;;;309.75;295.52;;;;;;;23.03;42.48;97150.19;5073950;28;20217;-65
2022/07/07 07:14:08;;;;;;;250.27;238.75;;;;;;;22.93;42.71;97153.06;5074302;28;20173;-65
2022/07/07 07:16:34;;;;;;;129.40;123.05;;;;;;;23.24;42.47;97145.25;5073963;28;20198;-65
2022/07/07 07:18:59;;;;;;;90.55;85.72;;;;;;;22.88;43.14;97155.84;5074440;28;20180;-65
2022/07/07 07:21:25;;;;;;;57.65;54.60;;;;;;;23.12;42.39;97156.44;5074228;28;20225;-65
2022/07/07 07:23:51;;;;;;;104.97;100.00;;;;;;;23.25;41.91;97160.19;5074045;28;20178;-65
2022/07/07 07:26:17;;;;;;;365.73;348.80;;;;;;;22.89;42.92;97154.75;5074818;28;20196;-65
2022/07/07 07:28:42;;;;;;;627.08;595.30;;;;;;;22.53;43.53;97158.03;5073584;28;20227;-65
2022/07/07 07:31:07;;;;;;;678.08;643.33;;;;;;;22.68;43.65;97163.09;5074205;28;20235;-65
2022/07/07 07:33:35;;;;;;;649.00;616.40;;;;;;;22.88;43.97;97161.19;5073983;28;20672;-65
2022/07/07 07:36:02;;;;;;;672.60;638.85;;;;;;;22.69;43.75;97155.88;5055766;28;20672;-65
2022/07/07 07:38:27;;;;;;;743.28;703.90;;;;;;;21.35;46.93;97161.91;5074345;28;20211;-64
2022/07/07 07:40:54;;;;;;;647.17;613.85;;;;;;;21.79;46.15;97167.69;5073824;28;20274;-64
2022/07/07 07:43:20;;;;;;;548.95;521.45;;;;;;;21.55;46.98;97167.78;5053781;28;20597;-64
2022/07/07 07:45:45;;;;;;;411.42;391.35;;;;;;;21.43;47.06;97170.06;5073762;28;20177;-64
2022/07/07 07:48:11;;;;;;;398.42;378.85;;;;;;;21.95;46.38;97179.81;5073103;28;20178;-64
2022/07/07 07:50:36;;;;;;;475.58;451.75;;;;;;;22.25;45.53;97172.38;5073367;28;20286;-64
2022/07/07 07:53:05;;;;;;;465.15;441.75;;;;;;;22.19;45.83;97177.03;5077329;28;20181;-64
2022/07/07 07:55:31;;;;;;;461.25;437.90;;;;;;;22.20;45.62;97189.28;5094532;28;20706;-64
2022/07/07 07:57:56;;;;;;;398.10;378.65;;;;;;;22.17;45.77;97184.53;5083578;28;20177;-65
2022/07/07 08:00:22;;;;;;;200.60;191.23;;;;;;;22.22;45.98;97181.78;5074035;28;20223;-64
2022/07/07 08:02:48;;;;;;;142.50;135.50;;;;;;;21.72;46.96;97191.31;5074694;28;20197;-64
2022/07/07 08:05:15;;;;;;;104.88;99.57;;;;;;;21.16;48.40;97193.88;5074165;28;20253;-65
2022/07/07 08:07:42;;;;;;;250.18;237.68;;;;;;;21.22;49.05;97189.28;5074168;28;20211;-66
2022/07/07 08:10:09;;;;;;;124.88;118.45;;;;;;;21.01;49.89;97194.78;5085097;28;20193;-64
2022/07/07 08:12:35;;;;;;;24.05;22.70;;;;;;;20.96;50.05;97191.38;5074593;28;20692;-64
2022/07/07 08:15:01;;;;;;;19.88;18.67;;;;;;;20.92;50.57;97187.69;5074275;28;20171;-64
2022/07/07 08:17:27;;;;;;;20.23;18.73;;;;;;;20.55;50.80;97178.47;5074402;28;20226;-65
2022/07/07 08:19:52;;;;;;;20.60;19.38;;;;;;;20.50;51.17;97175.06;5073329;28;20216;-65
2022/07/07 08:22:24;;;;;;;28.38;26.65;;;;;;;20.79;50.62;97165.16;5050692;28;20300;-64
2022/07/07 08:24:50;;;;;;;31.73;29.88;;;;;;;21.11;49.50;97162.72;5071934;28;20186;-64
2022/07/07 08:27:16;;;;;;;24.63;23.33;;;;;;;21.08;49.52;97149.94;5055388;28;20204;-64
2022/07/07 08:29:41;;;;;;;26.55;24.75;;;;;;;21.40;48.96;97151.97;5072965;28;20274;-64
2022/07/07 08:32:10;;;;;;;23.27;22.02;;;;;;;20.90;49.76;97155.22;5073088;28;20201;-64
2022/07/07 08:34:36;;;;;;;26.50;25.08;;;;;;;21.07;49.64;97155.53;5073350;28;20178;-64
2022/07/07 08:37:01;;;;;;;39.15;36.95;;;;;;;20.62;50.99;97152.28;5073661;28;20185;-62
2022/07/07 08:39:27;;;;;;;133.20;126.40;;;;;;;20.68;51.34;97151.16;5073054;28;20181;-62
2022/07/07 08:41:53;;;;;;;266.65;253.07;;;;;;;20.54;51.63;97157.44;5070694;28;20306;-63
2022/07/07 08:44:18;;;;;;;296.98;281.88;;;;;;;20.42;51.87;97163.13;5071466;28;20615;-63
2022/07/07 08:46:44;;;;;;;271.52;257.83;;;;;;;20.52;51.52;97172.91;5072868;28;20174;-63
2022/07/07 08:49:10;;;;;;;254.77;242.00;;;;;;;20.77;51.52;97171.88;5072929;28;20240;-63
2022/07/07 08:51:43;;;;;;;257.38;244.23;;;;;;;21.16;50.54;97159.22;5072791;28;20205;-63
2022/07/07 08:54:10;;;;;;;211.93;201.27;;;;;;;21.57;49.65;97159.47;5072604;28;20173;-63
2022/07/07 08:56:38;;;;;;;184.30;174.90;;;;;;;21.41;50.22;97158.09;5091012;28;20501;-63
2022/07/07 08:59:06;;;;;;;157.70;149.70;;;;;;;21.74;49.59;97153.63;5089158;28;20189;-63
2022/07/07 09:01:32;;;;;;;196.60;186.50;;;;;;;21.70;50.39;97158.78;5073395;28;20197;-63
2022/07/07 09:03:58;;;;;;;249.40;236.90;;;;;;;21.85;49.78;97150.53;5072832;28;20164;-63
2022/07/07 09:06:24;;;;;;;250.77;238.02;;;;;;;22.02;49.85;97136.69;5073196;28;20168;-63
2022/07/07 09:08:49;;;;;;;245.45;232.85;;;;;;;21.96;50.31;97144.00;5073049;28;20193;-64
2022/07/07 09:11:15;;;;;;;241.50;229.23;;;;;;;22.07;50.47;97138.53;5068345;28;20196;-63
2022/07/07 09:13:40;;;;;;;226.65;215.13;;;;;;;21.84;50.91;97151.66;5092994;28;20539;-63
2022/07/07 09:16:16;;;;;;;232.95;221.30;;;;;;;22.28;49.81;97150.47;5093213;28;20157;-64
2022/07/07 09:18:45;;;;;;;146.25;138.50;;;;;;;22.72;49.39;97141.97;5076834;28;20317;-65
2022/07/07 09:21:31;;;;;;;157.27;149.18;;;;;;;22.46;50.37;97151.50;5092094;28;20204;-64
2022/07/07 09:23:58;;;;;;;103.97;98.70;;;;;;;22.54;49.91;97148.94;5084330;28;20188;-64
2022/07/07 09:26:48;;;;;;;56.65;53.60;;;;;;;22.43;50.30;97166.22;5086236;28;20170;-64
2022/07/07 09:29:22;;;;;;;45.58;43.13;;;;;;;21.80;51.60;97158.63;5071708;28;20213;-64
2022/07/07 09:31:53;;;;;;;65.47;62.03;;;;;;;21.52;52.75;97165.69;5071557;28;20669;-64
2022/07/07 09:34:20;;;;;;;110.03;104.43;;;;;;;21.66;52.68;97156.97;5071871;28;20192;-64
2022/07/07 09:39:48;;;;;;;27.20;25.73;;;;;;;20.95;55.03;97163.97;5072331;28;20183;-64
2022/07/07 09:42:19;;;;;;;71.28;67.45;;;;;;;21.32;54.27;97170.50;5068679;28;20240;-64
2022/07/07 09:44:56;;;;;;;24.10;22.60;;;;;;;20.85;56.07;97181.91;5071061;28;20315;-63
2022/07/07 09:47:23;;;;;;;27.15;25.65;;;;;;;20.87;55.81;97175.22;5071638;28;20251;-64
2022/07/07 09:50:04;;;;;;;32.38;30.63;;;;;;;20.50;57.29;97181.19;5071331;28;20208;-64
2022/07/07 09:52:31;;;;;;;20.80;19.55;;;;;;;20.68;57.19;97177.00;5053367;28;20211;-64
2022/07/07 09:54:59;;;;;;;63.92;60.40;;;;;;;20.55;57.23;97185.69;5071419;28;20572;-64
2022/07/07 09:57:25;;;;;;;67.47;63.88;;;;;;;20.52;56.89;97203.00;5071446;28;20200;-63
2022/07/07 09:59:51;;;;;;;63.42;60.08;;;;;;;20.13;58.23;97202.22;5071323;28;20162;-64
2022/07/07 10:02:22;;;;;;;70.93;67.20;;;;;;;20.27;58.01;97198.66;5071505;28;20237;-64
2022/07/07 10:04:50;;;;;;;91.90;87.00;;;;;;;20.42;57.41;97197.75;5069472;28;20204;-64
2022/07/07 10:07:18;;;;;;;101.18;95.53;;;;;;;20.43;57.43;97207.34;5070877;28;20568;-64
2022/07/07 10:09:44;;;;;;;162.98;154.45;;;;;;;20.37;57.78;97213.78;5071058;28;20190;-64
2022/07/07 10:12:11;;;;;;;202.57;191.93;;;;;;;20.54;57.70;97194.72;5062882;28;20745;-64
2022/07/07 10:14:44;;;;;;;224.05;212.00;;;;;;;20.83;57.09;97202.72;5070963;28;20177;-64
2022/07/07 10:17:11;;;;;;;126.18;119.15;;;;;;;21.13;56.33;97197.06;5071721;28;20172;-64
2022/07/07 10:19:37;;;;;;;51.85;49.00;;;;;;;21.25;55.37;97196.69;5071557;28;20165;-64
2022/07/07 10:22:04;;;;;;;35.58;33.40;;;;;;;21.30;55.23;97197.44;5070670;28;20305;-63
2022/07/07 10:24:35;;;;;;;22.55;21.33;;;;;;;21.62;54.60;97206.66;5070260;28;20181;-63
2022/07/07 10:27:03;;;;;;;19.17;18.17;;;;;;;22.02;53.99;97208.78;5071252;28;20220;-64
2022/07/07 10:29:42;;;;;;;18.50;17.52;;;;;;;22.46;52.70;97213.72;5070981;28;20594;-64
2022/07/07 10:32:10;;;;;;;57.05;54.15;;;;;;;22.68;52.41;97211.19;5070652;28;20557;-64
2022/07/07 10:34:37;;;;;;;95.75;91.10;;;;;;;23.02;51.70;97202.06;5071103;28;20646;-64
2022/07/07 10:37:02;;;;;;;93.43;88.82;;;;;;;23.06;50.81;97197.75;5065608;28;20189;-64
2022/07/07 10:39:34;;;;;;;91.22;86.68;;;;;;;23.36;50.35;97193.66;5069765;28;20205;-64
2022/07/07 10:42:15;;;;;;;63.67;60.45;;;;;;;23.12;49.92;97197.38;5069697;28;20196;-64
2022/07/07 10:44:43;;;;;;;49.50;46.92;;;;;;;23.10;49.72;97196.84;5057070;28;20177;-64
2022/07/07 10:47:12;;;;;;;58.33;55.33;;;;;;;22.53;51.22;97190.09;5070104;28;20203;-64
2022/07/07 10:49:39;;;;;;;72.85;69.20;;;;;;;22.45;51.66;97198.78;5073484;28;20216;-64
2022/07/07 10:52:16;;;;;;;60.25;57.10;;;;;;;22.56;52.25;97202.88;5057301;28;20200;-64
2022/07/07 10:54:51;;;;;;;70.82;67.22;;;;;;;22.65;51.55;97205.66;5071439;28;20188;-66
2022/07/07 10:57:22;;;;;;;69.47;65.85;;;;;;;22.54;51.71;97206.91;5056892;28;20263;-66
2022/07/07 10:59:58;;;;;;;64.22;60.85;;;;;;;22.27;52.32;97208.41;5074325;28;20165;-66
2022/07/07 11:02:30;;;;;;;81.40;77.35;;;;;;;22.02;52.72;97202.66;5074817;28;20208;-66
2022/07/07 11:04:57;;;;;;;38.85;36.85;;;;;;;22.10;52.44;97210.03;5074659;28;20174;-64
2022/07/07 11:07:24;;;;;;;38.60;36.55;;;;;;;21.93;53.22;97208.63;5074381;28;20246;-64
2022/07/07 11:09:59;;;;;;;44.97;42.70;;;;;;;22.17;52.59;97213.13;5070799;28;20221;-67
2022/07/07 11:12:41;;;;;;;52.92;50.08;;;;;;;22.06;53.13;97215.16;5054909;28;20296;-65
2022/07/07 11:15:22;;;;;;;76.60;72.70;;;;;;;21.49;54.26;97206.28;5073009;28;20262;-65